Time;durP1;ratioP1;P1;durP2;ratioP2;P2;SDS_P1;SDS_P2;PMS_P1;PMS_P2;Temp;Humidity;BMP_temperature;BMP_pressure;BME280_temperature;BME280_humidity;BME280_pressure;Samples;Min_cycle;Max_cycle;Signal;HPM_P1;HPM_P2
2022/10/14 00:00:19;;;;;;;2.08;1.58;;;24.10;68.10;;;;;;5100876;28;20047;-38
2022/10/14 00:02:45;;;;;;;1.60;1.38;;;24.10;68.10;;;;;;5099929;28;20036;-38
2022/10/14 00:05:11;;;;;;;1.60;1.30;;;24.10;68.10;;;;;;5101002;28;20047;-38
2022/10/14 00:07:37;;;;;;;1.80;1.50;;;24.10;68.00;;;;;;5100978;28;20157;-39
2022/10/14 00:10:04;;;;;;;1.50;1.40;;;24.10;68.00;;;;;;5100900;28;20024;-38
2022/10/14 00:12:31;;;;;;;;;;;24.10;67.90;;;;;;5102021;28;20043;-38
2022/10/14 00:14:57;;;;;;;2.60;1.55;;;24.10;67.90;;;;;;5101451;28;20360;-39
2022/10/14 00:17:23;;;;;;;1.60;1.50;;;24.10;67.90;;;;;;5099061;28;20032;-40
2022/10/14 00:19:49;;;;;;;1.73;1.45;;;24.10;67.90;;;;;;5100732;28;20040;-39
2022/10/14 00:22:15;;;;;;;1.50;1.40;;;24.10;67.80;;;;;;5100735;28;20044;-39
2022/10/14 00:24:41;;;;;;;2.53;1.45;;;24.10;67.80;;;;;;5100995;28;20087;-38
2022/10/14 00:27:08;;;;;;;2.47;1.25;;;24.10;67.70;;;;;;5100468;28;20036;-38
2022/10/14 00:29:34;;;;;;;1.30;1.20;;;24.10;67.70;;;;;;5099680;28;20032;-38
2022/10/14 00:32:00;;;;;;;1.33;1.20;;;24.10;67.70;;;;;;5097991;28;20020;-39
2022/10/14 00:34:26;;;;;;;1.40;1.27;;;24.10;67.60;;;;;;5102721;28;20542;-39
2022/10/14 00:36:52;;;;;;;2.05;1.23;;;24.10;67.70;;;;;;5099942;28;20028;-38
2022/10/14 00:39:18;;;;;;;2.70;1.00;;;24.10;67.90;;;;;;5100336;28;20026;-39
2022/10/14 00:41:44;;;;;;;1.40;1.30;;;24.10;67.90;;;;;;5094540;28;20674;-38
2022/10/14 00:44:14;;;;;;;1.20;1.00;;;24.10;67.80;;;;;;5098988;28;20617;-38
2022/10/14 00:46:43;;;;;;;0.95;0.93;;;24.10;67.80;;;;;;5097344;28;20111;-38
2022/10/14 00:49:14;;;;;;;1.40;1.30;;;24.10;67.70;;;;;;5102333;28;20036;-39
2022/10/14 00:51:42;;;;;;;3.15;1.60;;;24.10;67.60;;;;;;5100866;28;20059;-39
2022/10/14 00:54:08;;;;;;;4.18;1.40;;;24.10;67.60;;;;;;5098237;28;20049;-40
2022/10/14 00:56:35;;;;;;;7.93;1.88;;;24.10;67.70;;;;;;5100083;28;20088;-38
2022/10/14 00:59:02;;;;;;;2.15;1.60;;;24.10;67.90;;;;;;5096936;28;20024;-38
2022/10/14 01:01:28;;;;;;;3.10;1.90;;;24.10;67.60;;;;;;5096081;28;20133;-38
2022/10/14 01:03:54;;;;;;;1.80;1.70;;;24.10;67.50;;;;;;5100505;28;20024;-38
2022/10/14 01:06:39;;;;;;;1.77;1.67;;;24.10;67.70;;;;;;5102694;28;20597;-38
2022/10/14 01:09:18;;;;;;;2.80;1.83;;;24.10;67.70;;;;;;5098018;28;20032;-37
2022/10/14 01:12:09;;;;;;;3.10;1.42;;;24.10;67.70;;;;;;5099929;28;20040;-39
2022/10/14 01:14:38;;;;;;;3.05;1.30;;;24.10;67.50;;;;;;5097624;28;20030;-39
2022/10/14 01:17:04;;;;;;;3.33;1.30;;;24.00;67.30;;;;;;5099550;28;20027;-37
2022/10/14 01:20:12;;;;;;;1.40;1.23;;;24.00;67.20;;;;;;5099634;28;20082;-37
2022/10/14 01:22:43;;;;;;;2.85;1.52;;;24.00;67.30;;;;;;5074026;28;20059;-38
2022/10/14 01:25:28;;;;;;;1.80;1.70;;;24.00;67.00;;;;;;5132011;27;20687;-38
2022/10/14 01:28:13;;;;;;;1.30;1.20;;;24.00;67.00;;;;;;5098409;28;20578;-39
2022/10/14 01:30:49;;;;;;;1.80;1.30;;;24.00;67.00;;;;;;5128988;27;20128;-38
2022/10/14 01:33:23;;;;;;;1.70;1.58;;;23.90;66.90;;;;;;5117503;27;20045;-39
2022/10/14 01:36:01;;;;;;;2.42;1.20;;;23.90;66.80;;;;;;5097322;28;20032;-38
2022/10/14 01:38:37;;;;;;;1.58;1.20;;;23.90;66.80;;;;;;5096105;28;20793;-38
2022/10/14 01:41:07;;;;;;;1.60;1.25;;;23.90;66.80;;;;;;5103593;28;20063;-38
2022/10/14 01:43:33;;;;;;;2.45;1.20;;;23.90;66.80;;;;;;5102838;28;20087;-42
2022/10/14 01:46:00;;;;;;;1.30;1.20;;;23.80;66.70;;;;;;5096378;28;20044;-42
2022/10/14 01:48:29;;;;;;;2.55;1.10;;;23.80;66.70;;;;;;5114569;27;20034;-49
2022/10/14 01:50:56;;;;;;;3.20;1.20;;;23.80;66.70;;;;;;5097846;28;20040;-49
2022/10/14 01:53:31;;;;;;;2.85;1.30;;;23.80;67.00;;;;;;5095528;28;20058;-39
2022/10/14 01:55:57;;;;;;;1.33;1.00;;;23.80;67.10;;;;;;5100272;28;20540;-41
2022/10/14 01:58:25;;;;;;;2.63;1.10;;;23.80;67.00;;;;;;5099645;28;20028;-42
2022/10/14 02:00:51;;;;;;;1.92;1.40;;;23.80;67.00;;;;;;5097521;28;20110;-39
2022/10/14 02:03:17;;;;;;;3.80;1.45;;;23.80;67.10;;;;;;5093755;28;20036;-38
2022/10/14 02:05:59;;;;;;;5.70;1.70;;;23.80;67.10;;;;;;5099622;28;20080;-38
2022/10/14 02:08:39;;;;;;;9.70;2.50;;;23.80;67.30;;;;;;5100016;28;20043;-39
2022/10/14 02:11:13;;;;;;;3.40;1.58;;;23.80;67.80;;;;;;5100936;28;20052;-39
2022/10/14 02:13:58;;;;;;;4.13;1.92;;;23.80;67.60;;;;;;5132618;27;20035;-39
2022/10/14 02:16:37;;;;;;;4.90;1.70;;;23.70;67.30;;;;;;5101499;28;20047;-39
2022/10/14 02:19:28;;;;;;;5.68;1.70;;;23.70;67.20;;;;;;5102080;28;20099;-39
2022/10/14 02:22:13;;;;;;;4.55;1.58;;;23.70;67.00;;;;;;5101517;28;20872;-38
2022/10/14 02:24:41;;;;;;;3.47;1.83;;;23.70;67.00;;;;;;5098887;28;20028;-39
2022/10/14 02:27:10;;;;;;;7.18;1.70;;;23.70;66.90;;;;;;5097696;28;20040;-39
2022/10/14 02:29:36;;;;;;;2.67;1.40;;;23.70;66.90;;;;;;5095643;28;20062;-39
2022/10/14 02:32:02;;;;;;;5.60;2.05;;;23.70;66.80;;;;;;5094948;28;20020;-55
2022/10/14 02:34:28;;;;;;;6.32;2.17;;;23.70;69.40;;;;;;5100207;28;20089;-40
2022/10/14 02:36:55;;;;;;;5.80;2.08;;;23.70;70.10;;;;;;5098141;28;20081;-42
2022/10/14 02:39:32;;;;;;;5.25;2.15;;;23.70;69.30;;;;;;5083843;28;20024;-41
2022/10/14 02:41:58;;;;;;;2.43;1.70;;;23.70;68.80;;;;;;5112314;27;20054;-49
2022/10/14 02:44:24;;;;;;;4.70;1.52;;;23.70;68.50;;;;;;5097411;28;20024;-39
2022/10/14 02:46:50;;;;;;;3.22;1.83;;;23.70;68.20;;;;;;5100147;28;20074;-46
2022/10/14 02:49:16;;;;;;;5.38;1.70;;;23.70;68.10;;;;;;5099607;28;20043;-48
2022/10/14 02:51:42;;;;;;;5.10;1.90;;;23.70;67.90;;;;;;5097235;28;20062;-49
2022/10/14 02:54:09;;;;;;;1.83;1.60;;;23.70;67.80;;;;;;5098372;28;20093;-46
2022/10/14 02:56:35;;;;;;;2.45;1.55;;;23.70;67.60;;;;;;5099618;28;20024;-47
2022/10/14 02:59:01;;;;;;;1.92;1.30;;;23.60;67.50;;;;;;5096502;28;20061;-44
2022/10/14 03:01:27;;;;;;;1.70;1.30;;;23.60;67.50;;;;;;5093097;28;20032;-47
2022/10/14 03:03:53;;;;;;;3.20;1.63;;;23.60;67.40;;;;;;5101381;28;20031;-44
2022/10/14 03:06:19;;;;;;;2.72;1.50;;;23.60;67.30;;;;;;5099804;28;20028;-50
2022/10/14 03:08:46;;;;;;;2.45;1.50;;;23.60;67.20;;;;;;5099173;28;20027;-45
2022/10/14 03:11:12;;;;;;;2.10;1.25;;;23.60;67.10;;;;;;5097669;28;20070;-45
2022/10/14 03:13:38;;;;;;;2.67;1.52;;;23.60;67.10;;;;;;5092910;28;20131;-43
2022/10/14 03:16:04;;;;;;;1.60;1.27;;;23.60;67.00;;;;;;5095789;28;20024;-43
2022/10/14 03:18:30;;;;;;;1.10;1.00;;;23.50;67.00;;;;;;5094648;28;20033;-43
2022/10/14 03:20:56;;;;;;;2.95;1.30;;;23.50;66.90;;;;;;5097348;28;20036;-48
2022/10/14 03:23:23;;;;;;;1.60;1.00;;;23.50;66.90;;;;;;5099369;28;20038;-51
2022/10/14 03:25:49;;;;;;;1.42;1.20;;;23.50;66.80;;;;;;5096283;28;20101;-49
2022/10/14 03:28:15;;;;;;;1.42;1.00;;;23.50;66.80;;;;;;5096417;28;20087;-62
2022/10/14 03:30:41;;;;;;;1.77;1.05;;;23.50;66.70;;;;;;5093252;28;20024;-45
2022/10/14 03:33:07;;;;;;;1.20;1.10;;;23.50;66.70;;;;;;5096712;28;20044;-44
2022/10/14 03:35:34;;;;;;;1.08;0.93;;;23.50;66.70;;;;;;5097297;28;20150;-44
2022/10/14 03:38:02;;;;;;;1.88;1.27;;;23.50;66.60;;;;;;5097336;28;20028;-44
2022/10/14 03:40:29;;;;;;;2.65;1.30;;;23.50;66.60;;;;;;5097151;28;20777;-45
2022/10/14 03:43:02;;;;;;;0.98;0.88;;;23.40;66.50;;;;;;5100209;28;20047;-45
2022/10/14 03:45:28;;;;;;;1.58;1.00;;;23.40;66.50;;;;;;5095616;28;20043;-45
2022/10/14 03:47:55;;;;;;;1.10;1.00;;;23.40;66.50;;;;;;5095639;28;20109;-44
2022/10/14 03:50:21;;;;;;;1.00;0.90;;;23.40;66.50;;;;;;5095940;28;20032;-44
2022/10/14 03:52:47;;;;;;;1.45;0.98;;;23.30;66.30;;;;;;5089476;28;20040;-44
2022/10/14 03:55:13;;;;;;;1.45;1.02;;;23.30;66.40;;;;;;5096026;28;20028;-45
2022/10/14 03:57:39;;;;;;;0.70;0.70;;;23.30;66.40;;;;;;5097710;28;20036;-44
2022/10/14 04:00:08;;;;;;;0.90;0.80;;;23.30;66.40;;;;;;5096852;28;20020;-42
2022/10/14 04:02:34;;;;;;;1.65;0.77;;;23.30;66.60;;;;;;5095181;28;20040;-43
2022/10/14 04:05:00;;;;;;;1.23;1.00;;;23.30;66.60;;;;;;5094577;28;20035;-45
2022/10/14 04:07:26;;;;;;;1.90;0.90;;;23.30;66.60;;;;;;5094035;28;20024;-43
2022/10/14 04:09:53;;;;;;;0.90;0.88;;;23.20;66.60;;;;;;5098084;28;20028;-48
2022/10/14 04:12:19;;;;;;;1.10;0.70;;;23.20;66.50;;;;;;5096222;28;20111;-45
2022/10/14 04:14:45;;;;;;;1.00;0.88;;;23.20;66.50;;;;;;5097191;28;20431;-46
2022/10/14 04:17:11;;;;;;;1.13;0.70;;;23.20;66.50;;;;;;5098821;28;20078;-48
2022/10/14 04:19:37;;;;;;;0.80;0.80;;;23.20;66.50;;;;;;5098100;28;20144;-46
2022/10/14 04:22:03;;;;;;;2.40;0.80;;;23.20;66.50;;;;;;5096637;28;20040;-47
2022/10/14 04:24:30;;;;;;;0.70;0.65;;;23.20;66.50;;;;;;5096567;28;20062;-49
2022/10/14 04:26:56;;;;;;;0.60;0.60;;;23.20;66.50;;;;;;5095875;28;20042;-46
2022/10/14 04:29:22;;;;;;;0.75;0.75;;;23.10;66.40;;;;;;5096422;28;20751;-47
2022/10/14 04:31:48;;;;;;;0.65;0.60;;;23.10;66.50;;;;;;5094746;28;20028;-48
2022/10/14 04:34:14;;;;;;;1.15;1.00;;;23.10;66.40;;;;;;5095118;28;20782;-49
2022/10/14 04:36:41;;;;;;;1.50;0.63;;;23.10;66.40;;;;;;5093539;28;20021;-46
2022/10/14 04:39:07;;;;;;;0.80;0.73;;;23.10;66.40;;;;;;5095778;28;20039;-48
2022/10/14 04:41:33;;;;;;;0.60;0.60;;;23.10;66.50;;;;;;5093096;28;20036;-44
2022/10/14 04:43:59;;;;;;;1.13;0.63;;;23.10;66.80;;;;;;5095572;28;20094;-46
2022/10/14 04:46:25;;;;;;;0.75;0.75;;;23.10;66.90;;;;;;5126118;27;20028;-45
2022/10/14 04:48:51;;;;;;;2.00;0.70;;;23.00;66.80;;;;;;5098119;28;20031;-47
2022/10/14 04:51:17;;;;;;;1.35;0.70;;;23.00;66.80;;;;;;5097019;28;20061;-45
2022/10/14 04:53:44;;;;;;;1.00;0.70;;;23.00;66.80;;;;;;5094812;28;20211;-44
2022/10/14 04:56:10;;;;;;;1.25;0.65;;;23.00;66.70;;;;;;5091469;28;20081;-44
2022/10/14 04:58:36;;;;;;;0.90;0.60;;;22.90;66.60;;;;;;5094835;28;20028;-45
2022/10/14 05:01:02;;;;;;;2.10;0.90;;;22.90;66.60;;;;;;5095503;28;20055;-48
2022/10/14 05:03:28;;;;;;;0.70;0.70;;;22.90;66.50;;;;;;5098811;28;20420;-43
2022/10/14 05:05:54;;;;;;;1.23;0.65;;;22.90;66.50;;;;;;5094035;28;20055;-45
2022/10/14 05:08:20;;;;;;;0.70;0.70;;;22.90;66.50;;;;;;5093717;28;20063;-43
2022/10/14 05:10:47;;;;;;;0.70;0.70;;;22.90;66.50;;;;;;5099090;28;20052;-51
2022/10/14 05:13:14;;;;;;;0.88;0.60;;;22.90;66.40;;;;;;5099782;28;20024;-45
2022/10/14 05:15:40;;;;;;;0.60;0.60;;;22.90;66.40;;;;;;5101325;28;20143;-46
2022/10/14 05:18:06;;;;;;;0.88;0.82;;;22.80;66.30;;;;;;5101585;28;20036;-43
2022/10/14 05:20:32;;;;;;;1.15;0.77;;;22.80;66.40;;;;;;5097781;28;20061;-45
2022/10/14 05:22:59;;;;;;;1.13;0.85;;;22.80;66.40;;;;;;5095344;28;20040;-44
2022/10/14 05:25:25;;;;;;;1.50;0.60;;;22.80;66.40;;;;;;5094391;28;20083;-43
2022/10/14 05:27:52;;;;;;;0.80;0.80;;;22.80;66.40;;;;;;5097471;28;20028;-43
2022/10/14 05:30:18;;;;;;;0.65;0.60;;;22.70;66.30;;;;;;5088328;28;20682;-43
2022/10/14 05:32:44;;;;;;;0.80;0.70;;;22.70;66.30;;;;;;5096401;28;20028;-44
2022/10/14 05:35:11;;;;;;;0.80;0.63;;;22.70;66.30;;;;;;5096611;28;20035;-44
2022/10/14 05:37:37;;;;;;;0.70;0.70;;;22.70;66.30;;;;;;5094237;28;20732;-43
2022/10/14 05:40:03;;;;;;;1.20;0.80;;;22.60;66.30;;;;;;5097356;28;20035;-43
2022/10/14 05:42:30;;;;;;;0.88;0.60;;;22.60;66.30;;;;;;5093623;28;20038;-42
2022/10/14 05:44:56;;;;;;;1.00;0.80;;;22.60;66.30;;;;;;5096162;28;20039;-42
2022/10/14 05:47:22;;;;;;;1.60;0.70;;;22.60;66.30;;;;;;5094881;28;20660;-45
2022/10/14 05:49:48;;;;;;;0.95;0.70;;;22.50;66.30;;;;;;5097376;28;20032;-45
2022/10/14 05:52:14;;;;;;;0.82;0.60;;;22.50;66.20;;;;;;5097162;28;20027;-45
2022/10/14 05:54:40;;;;;;;0.80;0.80;;;22.50;66.20;;;;;;5098049;28;20020;-44
2022/10/14 05:57:06;;;;;;;0.50;0.50;;;22.50;66.30;;;;;;5096245;28;20032;-43
2022/10/14 05:59:33;;;;;;;1.02;0.73;;;22.50;66.30;;;;;;5097745;28;20066;-46
2022/10/14 06:02:00;;;;;;;0.93;0.73;;;22.50;66.30;;;;;;5091484;28;20048;-46
2022/10/14 06:04:26;;;;;;;0.75;0.50;;;22.40;66.20;;;;;;5098227;28;20084;-46
2022/10/14 06:06:52;;;;;;;0.70;0.70;;;22.40;66.30;;;;;;5097678;28;20048;-45
2022/10/14 06:09:19;;;;;;;0.83;0.60;;;22.40;66.20;;;;;;5094479;28;20083;-45
2022/10/14 06:11:45;;;;;;;0.77;0.60;;;22.40;66.30;;;;;;5099077;28;20044;-46
2022/10/14 06:14:11;;;;;;;0.95;0.70;;;22.40;66.50;;;;;;5097485;28;20028;-46
2022/10/14 06:16:37;;;;;;;0.77;0.70;;;22.30;66.50;;;;;;5091601;28;20111;-45
2022/10/14 06:19:03;;;;;;;0.63;0.63;;;22.30;66.50;;;;;;5103080;28;20035;-48
2022/10/14 06:21:29;;;;;;;0.60;0.60;;;22.30;66.40;;;;;;5092029;28;20047;-44
2022/10/14 06:23:56;;;;;;;0.95;0.60;;;22.30;66.40;;;;;;5086557;28;20050;-45
2022/10/14 06:26:22;;;;;;;0.85;0.65;;;22.30;66.40;;;;;;5103394;28;20024;-45
2022/10/14 06:28:48;;;;;;;0.65;0.60;;;22.30;66.40;;;;;;5103438;28;20016;-45
2022/10/14 06:31:14;;;;;;;0.80;0.70;;;22.20;66.30;;;;;;5094350;28;20050;-44
2022/10/14 06:33:42;;;;;;;1.30;0.82;;;22.20;66.30;;;;;;5098548;28;20107;-42
2022/10/14 06:36:09;;;;;;;0.77;0.70;;;22.20;66.30;;;;;;5095665;28;20036;-43
2022/10/14 06:38:35;;;;;;;1.00;0.80;;;22.20;66.30;;;;;;5095900;28;20133;-44
2022/10/14 06:41:01;;;;;;;0.55;0.55;;;22.20;66.30;;;;;;5091871;28;20067;-42
2022/10/14 06:43:27;;;;;;;1.38;0.50;;;22.20;66.30;;;;;;5095949;28;20024;-46
2022/10/14 06:45:55;;;;;;;0.75;0.68;;;22.10;66.20;;;;;;5099945;28;20032;-43
2022/10/14 06:48:22;;;;;;;0.80;0.70;;;22.10;66.20;;;;;;5120587;28;20024;-43
2022/10/14 06:50:48;;;;;;;1.60;0.68;;;22.10;66.30;;;;;;5096942;28;20396;-43
2022/10/14 06:53:14;;;;;;;0.68;0.68;;;22.10;66.30;;;;;;5096376;28;20024;-43
2022/10/14 06:55:40;;;;;;;1.85;1.02;;;22.00;66.30;;;;;;5103758;28;20069;-44
2022/10/14 06:58:06;;;;;;;0.93;0.60;;;22.00;66.50;;;;;;5094518;28;20057;-43
2022/10/14 07:00:32;;;;;;;0.52;0.52;;;22.00;66.60;;;;;;5095704;28;20036;-44
2022/10/14 07:02:58;;;;;;;1.00;0.63;;;21.90;66.60;;;;;;5096994;28;20126;-43
2022/10/14 07:05:25;;;;;;;1.02;0.80;;;21.90;66.60;;;;;;5111960;28;20419;-44
2022/10/14 07:07:51;;;;;;;0.82;0.70;;;21.90;66.60;;;;;;5102975;28;20034;-46
2022/10/14 07:10:17;;;;;;;0.60;0.60;;;21.90;66.60;;;;;;5101122;28;20127;-43
2022/10/14 07:12:43;;;;;;;0.70;0.57;;;21.90;66.60;;;;;;5100347;28;20048;-42
2022/10/14 07:15:10;;;;;;;0.65;0.60;;;21.90;66.60;;;;;;5099063;28;20042;-43
2022/10/14 07:17:36;;;;;;;0.70;0.52;;;21.80;66.50;;;;;;5097367;28;20032;-45
2022/10/14 07:20:02;;;;;;;0.70;0.50;;;21.80;66.50;;;;;;5133316;27;20481;-44
2022/10/14 07:22:28;;;;;;;0.97;0.70;;;21.80;66.50;;;;;;5099023;28;20044;-41
2022/10/14 07:24:54;;;;;;;0.63;0.60;;;21.80;66.60;;;;;;5100533;28;20035;-44
2022/10/14 07:27:20;;;;;;;0.98;0.50;;;21.70;66.50;;;;;;5088404;28;20029;-43
2022/10/14 07:29:47;;;;;;;0.80;0.60;;;21.70;66.50;;;;;;5098627;28;20050;-43
2022/10/14 07:32:13;;;;;;;1.40;0.80;;;21.70;66.40;;;;;;5088145;28;20036;-41
2022/10/14 07:34:39;;;;;;;0.68;0.68;;;21.70;66.40;;;;;;5103199;28;20644;-40
2022/10/14 07:37:05;;;;;;;0.80;0.70;;;21.70;66.40;;;;;;5103044;28;20028;-42
2022/10/14 07:39:31;;;;;;;0.77;0.60;;;21.70;66.50;;;;;;5101006;28;20021;-43
2022/10/14 07:41:57;;;;;;;0.82;0.50;;;21.60;66.40;;;;;;5090418;28;20040;-42
2022/10/14 07:44:23;;;;;;;0.70;0.60;;;21.60;66.50;;;;;;5097374;28;20028;-42
2022/10/14 07:46:49;;;;;;;0.82;0.60;;;21.60;66.50;;;;;;5106062;28;20041;-43
2022/10/14 07:49:17;;;;;;;0.82;0.60;;;21.60;66.50;;;;;;5086051;28;20083;-44
2022/10/14 07:51:43;;;;;;;0.73;0.50;;;21.60;66.50;;;;;;5097590;28;20036;-46
2022/10/14 07:54:16;;;;;;;0.77;0.70;;;21.50;66.50;;;;;;5098189;28;20441;-44
2022/10/14 07:56:42;;;;;;;1.17;0.60;;;21.50;66.50;;;;;;5098287;28;20032;-44
2022/10/14 07:59:08;;;;;;;0.60;0.60;;;21.50;66.50;;;;;;5092791;28;20054;-39
2022/10/14 08:01:35;;;;;;;0.70;0.65;;;21.50;66.50;;;;;;5093686;28;20040;-40
2022/10/14 08:04:01;;;;;;;1.00;0.60;;;21.40;66.50;;;;;;5100277;28;20485;-41
2022/10/14 08:06:27;;;;;;;0.60;0.60;;;21.40;66.60;;;;;;5096785;28;20028;-39
2022/10/14 08:08:53;;;;;;;0.93;0.70;;;21.40;66.60;;;;;;5095519;28;20035;-39
2022/10/14 08:11:26;;;;;;;0.70;0.50;;;21.40;66.60;;;;;;5108352;28;20129;-41
2022/10/14 08:13:53;;;;;;;1.05;0.73;;;21.40;66.80;;;;;;5084431;28;20066;-40
2022/10/14 08:16:22;;;;;;;0.70;0.70;;;21.40;66.70;;;;;;5085509;28;20118;-43
2022/10/14 08:18:48;;;;;;;1.48;0.80;;;21.30;66.60;;;;;;5089130;28;20046;-43
2022/10/14 08:21:15;;;;;;;1.23;0.60;;;21.30;66.60;;;;;;5087335;28;20053;-45
2022/10/14 08:23:41;;;;;;;2.30;0.80;;;21.20;66.50;;;;;;5095485;28;20280;-43
2022/10/14 08:26:23;;;;;;;13.13;2.10;;;21.20;66.70;;;;;;5096757;28;20036;-42
2022/10/14 08:28:50;;;;;;;8.48;1.85;;;21.20;67.10;;;;;;5130985;27;20055;-39
2022/10/14 08:31:16;;;;;;;5.60;1.48;;;21.20;67.00;;;;;;5099861;28;20028;-40
2022/10/14 08:33:42;;;;;;;4.22;1.35;;;21.20;67.10;;;;;;5099857;28;20084;-43
2022/10/14 08:36:08;;;;;;;6.72;1.42;;;21.30;67.80;;;;;;5093574;28;20036;-39
2022/10/14 08:38:34;;;;;;;7.63;1.75;;;21.30;68.40;;;;;;5096628;28;20051;-45
2022/10/14 08:41:16;;;;;;;10.30;1.60;;;21.30;68.20;;;;;;5098549;28;20235;-40
2022/10/14 08:44:19;;;;;;;2.80;1.30;;;21.30;68.30;;;;;;5096220;28;20059;-41
2022/10/14 08:46:47;;;;;;;6.15;1.42;;;21.20;68.00;;;;;;5098670;28;20020;-40
2022/10/14 08:49:17;;;;;;;7.28;1.40;;;21.20;67.70;;;;;;5096552;28;20028;-39
2022/10/14 08:51:47;;;;;;;4.97;1.30;;;21.20;67.50;;;;;;5115366;27;20040;-39
2022/10/14 08:54:23;;;;;;;3.35;1.20;;;21.20;67.20;;;;;;5096147;28;20552;-41
2022/10/14 08:56:49;;;;;;;5.63;1.45;;;21.20;67.20;;;;;;5099486;28;20043;-42
2022/10/14 08:59:16;;;;;;;3.75;1.20;;;21.20;67.00;;;;;;5097325;28;20024;-40
2022/10/14 09:02:01;;;;;;;3.40;1.33;;;21.10;66.80;;;;;;5092945;28;20020;-40
2022/10/14 09:04:28;;;;;;;2.05;1.20;;;21.10;66.60;;;;;;5129265;27;20028;-39
2022/10/14 09:06:54;;;;;;;3.35;1.23;;;21.10;66.60;;;;;;5098747;28;20031;-39
2022/10/14 09:09:36;;;;;;;3.08;1.33;;;21.10;66.40;;;;;;5095499;28;20028;-38
2022/10/14 09:12:05;;;;;;;3.97;1.30;;;21.10;66.40;;;;;;5131520;27;20072;-39
2022/10/14 09:14:33;;;;;;;2.97;1.40;;;21.10;66.20;;;;;;5095322;28;20028;-39
2022/10/14 09:17:05;;;;;;;3.00;1.45;;;21.00;66.10;;;;;;5131724;27;20241;-39
2022/10/14 09:19:34;;;;;;;3.80;1.30;;;21.00;66.00;;;;;;5095365;28;20095;-38
2022/10/14 09:22:00;;;;;;;2.42;1.20;;;21.00;66.00;;;;;;5127023;27;20061;-38
2022/10/14 09:24:29;;;;;;;1.73;1.17;;;21.00;66.00;;;;;;5091592;28;20078;-38
2022/10/14 09:27:01;;;;;;;3.70;1.30;;;20.90;65.90;;;;;;5092815;28;20043;-38
2022/10/14 09:29:52;;;;;;;2.95;1.30;;;20.90;65.80;;;;;;5113964;28;20035;-38
2022/10/14 09:35:23;;;;;;;2.17;1.55;;;20.90;65.60;;;;;;5093538;28;20065;-38
2022/10/14 09:37:49;;;;;;;2.13;1.08;;;20.90;65.70;;;;;;5099290;28;20032;-38
2022/10/14 09:40:31;;;;;;;2.47;1.33;;;20.80;65.50;;;;;;5097216;28;20024;-38
2022/10/14 09:43:07;;;;;;;1.73;1.10;;;20.80;65.50;;;;;;5098654;28;20532;-38
2022/10/14 09:46:06;;;;;;;1.77;1.20;;;20.80;65.40;;;;;;5094404;28;20024;-40
2022/10/14 09:48:36;;;;;;;4.25;1.27;;;20.80;66.10;;;;;;5090242;28;20133;-39
2022/10/14 09:51:05;;;;;;;1.45;1.25;;;20.80;67.20;;;;;;5094228;28;20043;-38
2022/10/14 09:53:39;;;;;;;2.20;1.20;;;20.80;68.00;;;;;;5125529;27;20054;-39
2022/10/14 09:56:07;;;;;;;1.83;1.20;;;20.80;67.30;;;;;;5079823;28;20582;-39
2022/10/14 09:58:52;;;;;;;1.10;1.00;;;20.80;67.00;;;;;;5099933;28;20024;-40
2022/10/14 10:01:23;;;;;;;1.33;1.10;;;20.70;66.70;;;;;;5098977;28;20043;-37
2022/10/14 10:03:50;;;;;;;1.48;1.10;;;20.70;66.60;;;;;;5099803;28;20124;-40
2022/10/14 10:06:19;;;;;;;1.80;1.30;;;20.70;66.50;;;;;;5105642;28;20028;-44
2022/10/14 10:09:05;;;;;;;3.25;1.10;;;20.70;67.00;;;;;;5105041;28;20111;-44
2022/10/14 10:11:34;;;;;;;1.63;1.10;;;20.70;68.20;;;;;;5100482;28;20050;-43
2022/10/14 10:14:26;;;;;;;1.60;1.10;;;20.70;67.90;;;;;;5102786;28;20059;-52
2022/10/14 10:17:08;;;;;;;1.98;1.20;;;20.70;67.50;;;;;;5099888;28;20076;-40
2022/10/14 10:19:42;;;;;;;3.15;1.33;;;20.70;67.30;;;;;;5100973;28;20039;-40
2022/10/14 10:22:25;;;;;;;4.93;1.40;;;20.60;67.30;;;;;;5102399;28;20040;-50
2022/10/14 10:25:05;;;;;;;8.05;1.50;;;20.60;67.90;;;;;;5100685;28;20514;-50
2022/10/14 10:27:35;;;;;;;9.50;1.20;;;20.70;68.00;;;;;;5098714;28;20027;-61
2022/10/14 10:30:19;;;;;;;5.50;1.60;;;20.60;68.10;;;;;;5101313;28;20028;-46
2022/10/14 10:33:01;;;;;;;4.00;1.50;;;20.70;68.40;;;;;;5104608;28;20030;-43
2022/10/14 10:35:46;;;;;;;14.57;4.43;;;20.70;68.70;;;;;;5103242;28;20031;-62
2022/10/14 10:38:31;;;;;;;10.95;3.92;;;20.70;69.10;;;;;;5096918;28;20084;-54
2022/10/14 10:40:57;;;;;;;13.30;3.75;;;20.70;69.00;;;;;;5130626;27;20083;-49
2022/10/14 10:43:48;;;;;;;18.25;3.65;;;20.70;69.00;;;;;;5112641;28;20053;-41
2022/10/14 10:46:36;;;;;;;10.55;3.55;;;20.70;69.30;;;;;;5103911;28;20087;-40
2022/10/14 10:49:12;;;;;;;9.02;2.78;;;20.70;68.80;;;;;;5101025;28;20104;-42
2022/10/14 10:52:04;;;;;;;9.50;3.03;;;20.70;68.50;;;;;;5125546;28;20024;-40
2022/10/14 10:54:48;;;;;;;8.30;3.03;;;20.70;68.20;;;;;;5084684;28;20028;-41
2022/10/14 10:57:35;;;;;;;7.47;2.50;;;20.60;67.90;;;;;;5090257;28;20112;-41
2022/10/14 11:00:06;;;;;;;4.05;2.00;;;20.60;68.00;;;;;;5101307;28;20021;-40
2022/10/14 11:02:51;;;;;;;3.70;1.88;;;20.60;68.00;;;;;;5097129;28;20031;-43
2022/10/14 11:05:23;;;;;;;6.03;2.00;;;20.60;67.90;;;;;;5105251;28;20031;-40
2022/10/14 11:13:40;;;;;;;3.67;1.73;;;20.60;67.40;;;;;;5125699;27;20862;-42
2022/10/14 11:16:14;;;;;;;3.15;1.55;;;20.60;67.20;;;;;;5124773;27;20031;-40
2022/10/14 11:18:49;;;;;;;2.70;1.67;;;20.60;67.40;;;;;;5103520;28;20043;-40
2022/10/14 11:21:43;;;;;;;3.63;1.52;;;20.60;67.70;;;;;;5103206;28;20036;-39
2022/10/14 11:24:30;;;;;;;4.28;1.42;;;20.60;67.60;;;;;;5102375;28;20135;-42
2022/10/14 11:27:07;;;;;;;2.78;1.50;;;20.50;67.40;;;;;;5101897;28;20497;-41
2022/10/14 11:29:56;;;;;;;1.70;1.27;;;20.50;67.30;;;;;;5090367;28;20096;-39
2022/10/14 11:33:04;;;;;;;3.92;1.70;;;20.50;67.00;;;;;;5083035;28;20520;-39
2022/10/14 11:35:59;;;;;;;2.15;1.10;;;20.50;67.00;;;;;;5095390;28;20040;-40
2022/10/14 11:39:04;;;;;;;1.90;1.30;;;20.50;67.50;;;;;;5102277;28;20443;-40
2022/10/14 11:42:12;;;;;;;1.75;1.23;;;20.50;67.50;;;;;;5100612;28;20115;-40
2022/10/14 11:44:40;;;;;;;1.67;1.30;;;20.50;67.50;;;;;;5096646;28;20694;-40
2022/10/14 11:47:12;;;;;;;1.70;1.30;;;20.50;67.30;;;;;;5101451;28;20024;-39
2022/10/14 11:49:57;;;;;;;1.83;1.27;;;20.50;67.20;;;;;;5101929;28;20099;-40
2022/10/14 11:52:45;;;;;;;3.17;1.00;;;20.50;67.00;;;;;;5101801;28;20035;-40
2022/10/14 11:55:16;;;;;;;1.77;1.30;;;20.40;67.30;;;;;;5100860;28;20758;-41
2022/10/14 11:57:55;;;;;;;1.42;1.10;;;20.40;67.60;;;;;;5100355;28;20032;-39
2022/10/14 12:00:22;;;;;;;2.10;1.10;;;20.40;67.50;;;;;;5114231;27;20028;-39
2022/10/14 12:03:16;;;;;;;1.33;1.17;;;20.40;67.40;;;;;;5083686;28;20515;-39
2022/10/14 12:05:53;;;;;;;2.97;1.20;;;20.40;67.20;;;;;;5101072;28;20064;-40
2022/10/14 12:08:24;;;;;;;1.10;1.00;;;20.40;67.70;;;;;;5102095;28;20058;-39
2022/10/14 12:10:54;;;;;;;1.50;1.10;;;20.40;66.90;;;;;;5100462;28;20573;-39
2022/10/14 12:13:46;;;;;;;1.45;1.20;;;20.40;66.80;;;;;;5099675;28;20032;-40
2022/10/14 12:16:16;;;;;;;2.45;0.98;;;20.40;66.70;;;;;;5100561;28;20048;-43
2022/10/14 12:18:43;;;;;;;1.35;1.23;;;20.40;66.60;;;;;;5100182;28;20078;-40
2022/10/14 12:21:15;;;;;;;2.10;1.23;;;20.30;66.40;;;;;;5116983;28;20056;-41
2022/10/14 12:24:13;;;;;;;1.20;1.10;;;20.30;66.30;;;;;;5098497;28;20036;-41
2022/10/14 12:26:44;;;;;;;1.20;1.00;;;20.30;66.30;;;;;;5099125;28;20073;-40
2022/10/14 12:29:12;;;;;;;1.30;1.00;;;20.30;66.20;;;;;;5098967;28;20104;-39
2022/10/14 12:31:39;;;;;;;1.67;1.10;;;20.30;66.20;;;;;;5133006;27;20031;-39
2022/10/14 12:34:13;;;;;;;1.35;1.15;;;20.20;66.10;;;;;;5098988;28;20024;-40
2022/10/14 12:36:41;;;;;;;1.55;1.08;;;20.20;66.10;;;;;;5099949;28;20475;-40
2022/10/14 12:39:16;;;;;;;2.22;1.00;;;20.20;66.00;;;;;;5082705;28;20038;-39
2022/10/14 12:41:48;;;;;;;1.58;1.10;;;20.20;66.10;;;;;;5099860;28;20032;-39
2022/10/14 12:44:17;;;;;;;1.80;1.20;;;20.10;66.70;;;;;;5097446;28;20035;-39
2022/10/14 12:46:47;;;;;;;1.33;1.10;;;20.10;66.00;;;;;;5101174;28;20040;-39
2022/10/14 12:49:23;;;;;;;1.33;1.08;;;20.10;65.90;;;;;;5101160;28;20032;-39
2022/10/14 12:51:56;;;;;;;1.60;0.90;;;20.10;66.00;;;;;;5101177;28;20032;-40
2022/10/14 12:54:23;;;;;;;1.58;1.20;;;20.00;65.80;;;;;;5098647;28;20036;-39
2022/10/14 12:57:02;;;;;;;1.20;1.10;;;20.00;65.80;;;;;;5096526;28;20032;-39
2022/10/14 12:59:35;;;;;;;1.30;1.20;;;20.00;65.80;;;;;;5098911;28;20591;-39
2022/10/14 13:02:25;;;;;;;1.88;1.10;;;20.00;65.80;;;;;;5098691;28;20055;-39
2022/10/14 13:04:52;;;;;;;1.77;1.10;;;20.00;65.70;;;;;;5100592;28;20016;-39
2022/10/14 13:07:24;;;;;;;2.33;1.27;;;19.90;65.80;;;;;;5099331;28;20134;-40
2022/10/14 13:09:57;;;;;;;1.10;0.95;;;19.90;65.70;;;;;;5100670;28;20032;-39
2022/10/14 13:12:23;;;;;;;1.17;0.90;;;19.90;65.70;;;;;;5133925;27;20061;-39
2022/10/14 13:14:57;;;;;;;1.80;1.20;;;19.90;65.80;;;;;;5100326;28;20047;-39